Time;durP1;ratioP1;P1;durP2;ratioP2;P2;SDS_P1;SDS_P2;PMS_P1;PMS_P2;Temp;Humidity;BMP_temperature;BMP_pressure;BME280_temperature;BME280_humidity;BME280_pressure;Samples;Min_cycle;Max_cycle;Signal;HPM_P1;HPM_P2
2022/03/29 00:01:16;;;;;;;69.75;34.92;;;;;;;;;;4996827;28;20053;-73
2022/03/29 00:03:42;;;;;;;70.72;35.05;;;;;;;;;;5014326;28;20025;-75
2022/03/29 00:06:08;;;;;;;73.35;33.33;;;;;;;;;;5014139;28;20471;-75
2022/03/29 00:08:34;;;;;;;65.50;34.30;;;;;;;;;;5014193;28;20037;-75
2022/03/29 00:11:00;;;;;;;77.18;34.83;;;;;;;;;;4996402;28;20483;-74
2022/03/29 00:13:26;;;;;;;65.95;33.30;;;;;;;;;;4996383;28;20185;-75
2022/03/29 00:15:52;;;;;;;65.88;33.13;;;;;;;;;;5014196;28;20029;-75
2022/03/29 00:18:18;;;;;;;71.50;35.58;;;;;;;;;;5015127;28;20127;-76
2022/03/29 00:20:44;;;;;;;70.30;34.83;;;;;;;;;;5019016;28;20033;-75
2022/03/29 00:23:10;;;;;;;75.78;33.70;;;;;;;;;;5014449;28;20084;-77
2022/03/29 00:25:35;;;;;;;80.93;34.53;;;;;;;;;;5015860;28;20026;-75
2022/03/29 00:28:01;;;;;;;84.63;36.10;;;;;;;;;;5025093;28;20026;-76
2022/03/29 00:30:27;;;;;;;76.55;33.55;;;;;;;;;;5014322;28;20022;-76
2022/03/29 00:32:53;;;;;;;71.95;32.50;;;;;;;;;;5019107;28;20059;-77
2022/03/29 00:35:20;;;;;;;84.47;33.92;;;;;;;;;;5015152;28;20494;-77
2022/03/29 00:37:47;;;;;;;76.75;33.47;;;;;;;;;;5021853;28;20026;-76
2022/03/29 00:40:14;;;;;;;77.63;34.80;;;;;;;;;;5011255;28;20047;-75
2022/03/29 00:42:41;;;;;;;80.60;35.65;;;;;;;;;;5034228;28;20038;-74
2022/03/29 00:45:07;;;;;;;69.45;32.35;;;;;;;;;;5034955;28;20049;-74
2022/03/29 00:47:33;;;;;;;72.18;34.35;;;;;;;;;;5037799;28;20018;-75
2022/03/29 00:49:59;;;;;;;76.65;35.03;;;;;;;;;;5038564;28;20018;-75
2022/03/29 00:52:25;;;;;;;74.75;34.15;;;;;;;;;;5038490;28;20044;-75
2022/03/29 00:54:51;;;;;;;79.20;34.60;;;;;;;;;;5037660;28;20026;-75
2022/03/29 00:57:18;;;;;;;74.20;34.38;;;;;;;;;;5038288;28;20022;-75
2022/03/29 00:59:46;;;;;;;69.15;33.30;;;;;;;;;;5037179;28;20054;-75
2022/03/29 01:02:12;;;;;;;65.70;31.92;;;;;;;;;;5026639;28;20033;-78
2022/03/29 01:04:38;;;;;;;74.78;32.40;;;;;;;;;;5015779;28;20048;-76
2022/03/29 01:07:04;;;;;;;74.13;32.95;;;;;;;;;;5012917;28;20022;-75
2022/03/29 01:09:31;;;;;;;74.25;33.58;;;;;;;;;;5013688;28;20078;-75
2022/03/29 01:11:57;;;;;;;73.85;32.33;;;;;;;;;;5015315;28;20108;-75
2022/03/29 01:14:24;;;;;;;65.30;30.77;;;;;;;;;;4996317;28;20032;-76
2022/03/29 01:19:36;;;;;;;70.18;31.83;;;;;;;;;;5012601;28;20402;-76
2022/03/29 01:22:05;;;;;;;74.43;28.80;;;;;;;;;;5013394;28;20090;-75
2022/03/29 01:24:32;;;;;;;73.30;27.65;;;;;;;;;;5012931;28;20022;-75
2022/03/29 01:27:02;;;;;;;61.55;28.13;;;;;;;;;;5012781;28;20049;-75
2022/03/29 01:29:29;;;;;;;60.60;28.55;;;;;;;;;;5012022;28;20080;-75
2022/03/29 01:31:57;;;;;;;63.05;28.92;;;;;;;;;;4994936;28;20030;-76
2022/03/29 01:34:23;;;;;;;59.95;27.80;;;;;;;;;;5012613;28;20026;-76
2022/03/29 01:36:49;;;;;;;67.38;28.40;;;;;;;;;;4994750;28;20072;-76
2022/03/29 01:39:15;;;;;;;63.30;28.85;;;;;;;;;;5012643;28;20054;-76
2022/03/29 01:41:41;;;;;;;67.20;27.90;;;;;;;;;;5012888;28;20030;-76
2022/03/29 01:44:08;;;;;;;63.65;27.05;;;;;;;;;;5012859;28;20117;-76
2022/03/29 01:46:34;;;;;;;64.28;27.30;;;;;;;;;;5012536;28;20084;-76
2022/03/29 01:49:00;;;;;;;71.32;28.45;;;;;;;;;;5012589;28;20026;-76
2022/03/29 01:51:26;;;;;;;58.00;26.45;;;;;;;;;;5012552;28;20498;-76
2022/03/29 01:53:54;;;;;;;60.47;26.13;;;;;;;;;;5012762;28;20109;-77
2022/03/29 01:56:20;;;;;;;56.75;26.70;;;;;;;;;;5013093;28;20048;-76
2022/03/29 01:58:46;;;;;;;55.85;24.02;;;;;;;;;;5012723;28;20483;-77
2022/03/29 02:01:12;;;;;;;56.55;22.90;;;;;;;;;;5013139;28;20064;-76
2022/03/29 02:03:38;;;;;;;45.75;19.50;;;;;;;;;;5013353;28;20033;-75
2022/03/29 02:06:04;;;;;;;49.85;20.55;;;;;;;;;;5013800;28;20105;-76
2022/03/29 02:08:30;;;;;;;48.75;18.95;;;;;;;;;;5019423;28;20014;-75
2022/03/29 02:10:56;;;;;;;40.53;17.42;;;;;;;;;;5037036;28;20042;-76
2022/03/29 02:13:22;;;;;;;51.03;17.63;;;;;;;;;;5039243;28;20033;-77
2022/03/29 02:15:49;;;;;;;43.50;17.15;;;;;;;;;;5028725;28;20272;-76
2022/03/29 02:18:15;;;;;;;48.22;17.85;;;;;;;;;;5052205;28;20056;-77
2022/03/29 02:20:41;;;;;;;43.17;19.85;;;;;;;;;;5027614;28;20486;-77
2022/03/29 02:23:08;;;;;;;45.83;19.25;;;;;;;;;;5038919;28;20093;-77
2022/03/29 02:25:35;;;;;;;58.72;22.13;;;;;;;;;;5037555;28;20096;-78
2022/03/29 02:28:01;;;;;;;52.25;22.08;;;;;;;;;;5038300;28;20025;-78
2022/03/29 02:30:27;;;;;;;56.00;20.63;;;;;;;;;;5037667;28;20029;-78
2022/03/29 02:32:53;;;;;;;57.17;21.27;;;;;;;;;;5037959;28;20109;-77
2022/03/29 02:35:19;;;;;;;46.95;20.23;;;;;;;;;;5018319;28;20045;-75
2022/03/29 02:37:45;;;;;;;54.65;19.25;;;;;;;;;;5036250;28;20038;-75
2022/03/29 02:40:13;;;;;;;31.35;14.23;;;;;;;;;;5036198;28;20258;-75
2022/03/29 02:42:46;;;;;;;42.15;13.32;;;;;;;;;;5036011;28;20022;-75
2022/03/29 02:45:14;;;;;;;44.00;13.52;;;;;;;;;;5018323;28;20030;-76
2022/03/29 02:47:40;;;;;;;35.55;11.40;;;;;;;;;;5035226;28;20017;-75
2022/03/29 02:50:07;;;;;;;39.28;11.00;;;;;;;;;;5035381;28;20030;-75
2022/03/29 02:52:33;;;;;;;38.63;11.32;;;;;;;;;;5017477;28;20024;-75
2022/03/29 02:54:59;;;;;;;34.05;10.65;;;;;;;;;;5035694;28;20029;-75
2022/03/29 02:57:24;;;;;;;28.45;10.65;;;;;;;;;;5033840;28;20036;-75
2022/03/29 02:59:50;;;;;;;46.92;11.77;;;;;;;;;;5035183;28;20022;-75
2022/03/29 03:02:16;;;;;;;37.72;10.55;;;;;;;;;;5035643;28;20030;-75
2022/03/29 03:04:42;;;;;;;34.22;10.90;;;;;;;;;;5035603;28;20022;-75
2022/03/29 03:07:08;;;;;;;45.80;11.90;;;;;;;;;;5019605;28;20489;-74
2022/03/29 03:09:34;;;;;;;34.97;10.95;;;;;;;;;;5019004;28;20057;-75
2022/03/29 03:12:00;;;;;;;50.75;12.18;;;;;;;;;;5014968;28;20049;-76
2022/03/29 03:14:26;;;;;;;62.30;12.68;;;;;;;;;;5015698;28;20057;-75
2022/03/29 03:16:52;;;;;;;41.80;11.07;;;;;;;;;;5015281;28;20049;-75
2022/03/29 03:19:18;;;;;;;39.20;10.77;;;;;;;;;;5014947;28;20026;-75
2022/03/29 03:21:44;;;;;;;39.92;11.20;;;;;;;;;;5015582;28;20080;-75
2022/03/29 03:24:10;;;;;;;44.30;10.43;;;;;;;;;;5014091;28;20029;-74
2022/03/29 03:26:36;;;;;;;44.28;9.90;;;;;;;;;;5014836;28;20053;-75
2022/03/29 03:29:02;;;;;;;40.85;10.30;;;;;;;;;;5016526;28;20026;-74
2022/03/29 03:31:28;;;;;;;43.85;10.05;;;;;;;;;;5018195;28;20234;-74
2022/03/29 03:33:54;;;;;;;42.13;8.75;;;;;;;;;;5016920;28;20072;-76
2022/03/29 03:36:20;;;;;;;47.55;9.10;;;;;;;;;;5015222;28;20033;-74
2022/03/29 03:38:46;;;;;;;52.72;8.60;;;;;;;;;;5017103;28;20029;-74
2022/03/29 03:41:12;;;;;;;40.97;8.18;;;;;;;;;;4998957;28;20037;-73
2022/03/29 03:43:38;;;;;;;55.60;8.00;;;;;;;;;;5015280;28;20030;-76
2022/03/29 03:46:04;;;;;;;47.72;7.70;;;;;;;;;;5014417;28;20049;-76
2022/03/29 03:48:31;;;;;;;46.97;8.73;;;;;;;;;;5024285;28;20029;-75
2022/03/29 03:50:56;;;;;;;43.55;8.30;;;;;;;;;;5014816;28;20046;-75
2022/03/29 03:53:22;;;;;;;55.60;8.50;;;;;;;;;;5014628;28;20037;-75
2022/03/29 03:55:48;;;;;;;47.00;8.18;;;;;;;;;;5014462;28;20025;-74
2022/03/29 03:58:14;;;;;;;60.50;9.63;;;;;;;;;;5014794;28;20132;-76
2022/03/29 04:00:41;;;;;;;48.42;7.85;;;;;;;;;;5015016;28;20048;-74
2022/03/29 04:03:09;;;;;;;42.80;8.40;;;;;;;;;;5014882;28;20022;-74
2022/03/29 04:05:35;;;;;;;46.88;9.07;;;;;;;;;;5014806;28;20018;-74
2022/03/29 04:08:00;;;;;;;44.97;8.43;;;;;;;;;;5018405;28;20056;-76
2022/03/29 04:10:27;;;;;;;48.92;8.43;;;;;;;;;;5014790;28;20018;-76
2022/03/29 04:12:53;;;;;;;55.10;9.43;;;;;;;;;;5015001;28;20036;-74
2022/03/29 04:15:19;;;;;;;46.45;9.00;;;;;;;;;;5015054;28;20430;-77
2022/03/29 04:17:45;;;;;;;48.17;7.40;;;;;;;;;;5014728;28;20037;-74
2022/03/29 04:20:11;;;;;;;56.67;8.90;;;;;;;;;;5014665;28;20034;-75
2022/03/29 04:22:37;;;;;;;48.95;8.70;;;;;;;;;;4996659;28;20040;-76
2022/03/29 04:25:03;;;;;;;54.55;9.98;;;;;;;;;;5014568;28;20030;-76
2022/03/29 04:27:29;;;;;;;47.92;8.60;;;;;;;;;;5014599;28;20030;-75
2022/03/29 04:29:55;;;;;;;50.15;8.60;;;;;;;;;;5014170;28;20037;-75
2022/03/29 04:32:21;;;;;;;54.97;8.80;;;;;;;;;;4997321;28;20067;-76
2022/03/29 04:34:48;;;;;;;48.55;7.05;;;;;;;;;;5014945;28;20372;-75
2022/03/29 04:37:14;;;;;;;62.88;8.63;;;;;;;;;;5018169;28;20086;-75
2022/03/29 04:39:40;;;;;;;51.22;7.63;;;;;;;;;;5017912;28;20042;-75
2022/03/29 04:42:07;;;;;;;48.33;8.00;;;;;;;;;;5014080;28;20030;-75
2022/03/29 04:44:34;;;;;;;72.50;10.45;;;;;;;;;;5015280;28;20029;-75
2022/03/29 04:47:00;;;;;;;55.17;9.43;;;;;;;;;;5014908;28;20554;-75
2022/03/29 04:49:26;;;;;;;50.83;10.45;;;;;;;;;;5014811;28;20494;-76
2022/03/29 04:51:52;;;;;;;61.85;8.65;;;;;;;;;;4997374;28;20030;-75
2022/03/29 04:54:18;;;;;;;52.33;7.03;;;;;;;;;;5013915;28;20021;-76
2022/03/29 04:56:44;;;;;;;52.10;7.85;;;;;;;;;;5013688;28;20032;-75
2022/03/29 04:59:11;;;;;;;68.10;8.07;;;;;;;;;;5013893;28;20033;-76
2022/03/29 05:01:37;;;;;;;56.63;7.95;;;;;;;;;;5013245;28;20022;-75
2022/03/29 05:04:04;;;;;;;55.65;7.53;;;;;;;;;;5000860;28;20021;-75
2022/03/29 05:06:30;;;;;;;74.35;10.05;;;;;;;;;;5025474;28;20113;-76
2022/03/29 05:08:56;;;;;;;55.88;7.78;;;;;;;;;;5022901;28;20026;-76
2022/03/29 05:11:22;;;;;;;54.95;7.00;;;;;;;;;;5020319;28;20029;-75
2022/03/29 05:13:48;;;;;;;54.58;7.45;;;;;;;;;;5014480;28;20061;-76
2022/03/29 05:16:14;;;;;;;51.85;6.97;;;;;;;;;;5013920;28;20053;-75
2022/03/29 05:18:39;;;;;;;53.55;7.55;;;;;;;;;;5015560;28;20041;-75
2022/03/29 05:21:05;;;;;;;54.65;9.32;;;;;;;;;;5018057;28;20075;-76
2022/03/29 05:23:31;;;;;;;48.97;6.70;;;;;;;;;;5019278;28;20109;-75
2022/03/29 05:25:57;;;;;;;49.38;7.57;;;;;;;;;;5017387;28;20018;-75
2022/03/29 05:28:23;;;;;;;51.92;8.60;;;;;;;;;;4997600;28;20037;-76
2022/03/29 05:30:49;;;;;;;59.42;8.13;;;;;;;;;;5014636;28;20026;-75
2022/03/29 05:33:17;;;;;;;55.83;8.18;;;;;;;;;;5000949;28;20697;-77
2022/03/29 05:35:44;;;;;;;57.20;6.82;;;;;;;;;;5019433;28;20033;-76
2022/03/29 05:38:10;;;;;;;51.92;6.90;;;;;;;;;;5014637;28;20025;-76
2022/03/29 05:40:37;;;;;;;44.58;7.15;;;;;;;;;;5014726;28;20087;-77
2022/03/29 05:43:03;;;;;;;49.83;6.63;;;;;;;;;;5018161;28;20030;-74
2022/03/29 05:45:29;;;;;;;57.13;7.97;;;;;;;;;;5017557;28;20510;-76
2022/03/29 05:50:39;;;;;;;44.42;6.47;;;;;;;;;;5023876;28;20041;-75
2022/03/29 05:53:06;;;;;;;51.63;7.70;;;;;;;;;;5022121;28;20034;-75
2022/03/29 05:55:32;;;;;;;44.90;6.38;;;;;;;;;;5017354;28;20026;-75
2022/03/29 05:57:58;;;;;;;40.03;6.85;;;;;;;;;;5021778;28;20427;-75
2022/03/29 06:00:25;;;;;;;49.90;8.05;;;;;;;;;;5016676;28;20026;-77
2022/03/29 06:02:51;;;;;;;48.50;8.48;;;;;;;;;;4996332;28;20113;-77
2022/03/29 06:05:17;;;;;;;51.90;7.75;;;;;;;;;;5013254;28;20030;-77
2022/03/29 06:07:44;;;;;;;45.67;6.50;;;;;;;;;;5013582;28;20018;-76
2022/03/29 06:10:11;;;;;;;45.42;6.85;;;;;;;;;;5013501;28;20026;-75
2022/03/29 06:12:37;;;;;;;47.95;6.30;;;;;;;;;;5013024;28;20026;-74
2022/03/29 06:15:04;;;;;;;57.95;7.53;;;;;;;;;;5012504;28;20104;-76
2022/03/29 06:17:30;;;;;;;54.90;7.18;;;;;;;;;;5012654;28;20072;-75
2022/03/29 06:19:56;;;;;;;37.95;6.15;;;;;;;;;;5015616;28;20037;-79
2022/03/29 06:22:22;;;;;;;41.83;6.03;;;;;;;;;;5016451;28;20026;-78
2022/03/29 06:24:49;;;;;;;38.28;6.05;;;;;;;;;;5015350;28;20030;-78
2022/03/29 06:27:15;;;;;;;47.33;6.60;;;;;;;;;;5014561;28;20079;-77
2022/03/29 06:29:40;;;;;;;50.47;7.75;;;;;;;;;;5013014;28;20030;-76
2022/03/29 06:32:06;;;;;;;39.53;6.15;;;;;;;;;;4997082;28;20026;-77
2022/03/29 06:34:33;;;;;;;47.47;5.80;;;;;;;;;;5016035;28;20446;-76
2022/03/29 06:36:59;;;;;;;57.53;6.72;;;;;;;;;;5015303;28;20619;-76
2022/03/29 06:39:26;;;;;;;45.20;8.63;;;;;;;;;;5014023;28;20053;-77
2022/03/29 06:41:55;;;;;;;46.55;6.20;;;;;;;;;;5015939;28;20110;-78
2022/03/29 06:44:21;;;;;;;43.90;6.07;;;;;;;;;;5017882;28;20018;-77
2022/03/29 06:46:49;;;;;;;38.22;5.85;;;;;;;;;;5014875;28;20040;-77
2022/03/29 06:49:15;;;;;;;51.28;6.70;;;;;;;;;;5019450;28;20032;-77
2022/03/29 06:51:43;;;;;;;37.40;5.20;;;;;;;;;;5022483;28;20022;-78
2022/03/29 06:54:09;;;;;;;46.25;6.45;;;;;;;;;;5025154;28;20026;-77
2022/03/29 06:56:35;;;;;;;34.70;4.95;;;;;;;;;;5019603;28;20030;-78
2022/03/29 06:59:03;;;;;;;32.53;5.55;;;;;;;;;;5024156;28;20088;-76
2022/03/29 07:01:29;;;;;;;47.53;6.57;;;;;;;;;;5026010;28;20094;-77
2022/03/29 07:03:59;;;;;;;46.67;7.35;;;;;;;;;;5018320;28;20030;-76
2022/03/29 07:06:25;;;;;;;50.58;6.15;;;;;;;;;;5001022;28;20049;-77
2022/03/29 07:11:36;;;;;;;43.53;4.55;;;;;;;;;;5019828;28;20056;-78
2022/03/29 07:14:06;;;;;;;43.58;5.90;;;;;;;;;;5020818;28;20113;-78
2022/03/29 07:16:33;;;;;;;37.75;5.90;;;;;;;;;;5020345;28;20050;-78
2022/03/29 07:18:59;;;;;;;31.13;3.90;;;;;;;;;;5021274;28;20097;-78
2022/03/29 07:21:25;;;;;;;39.10;5.45;;;;;;;;;;5024596;28;20033;-79
2022/03/29 07:23:52;;;;;;;38.38;4.43;;;;;;;;;;5004035;28;20088;-78
2022/03/29 07:26:17;;;;;;;45.30;5.75;;;;;;;;;;5021330;28;20057;-79
2022/03/29 07:28:43;;;;;;;35.47;4.68;;;;;;;;;;5021005;28;20033;-77
2022/03/29 07:31:09;;;;;;;35.20;3.78;;;;;;;;;;5020992;28;20032;-77
2022/03/29 07:33:35;;;;;;;30.52;4.07;;;;;;;;;;5019309;28;20068;-78
2022/03/29 07:36:03;;;;;;;31.77;4.03;;;;;;;;;;5031616;28;20014;-78
2022/03/29 07:38:29;;;;;;;28.25;3.75;;;;;;;;;;5023713;28;20098;-78
2022/03/29 07:40:55;;;;;;;26.65;3.97;;;;;;;;;;5021461;28;20026;-77
2022/03/29 07:43:22;;;;;;;26.40;3.67;;;;;;;;;;5025133;28;20041;-77
2022/03/29 07:45:48;;;;;;;37.88;4.50;;;;;;;;;;5025892;28;20097;-78
2022/03/29 07:48:14;;;;;;;24.48;4.00;;;;;;;;;;5027971;28;20030;-79
2022/03/29 07:50:40;;;;;;;30.02;4.05;;;;;;;;;;5032247;28;20451;-77
2022/03/29 07:53:07;;;;;;;34.60;4.07;;;;;;;;;;5033104;28;20026;-78
2022/03/29 07:55:33;;;;;;;55.30;18.63;;;;;;;;;;5028942;28;20686;-78
2022/03/29 07:57:59;;;;;;;64.22;23.27;;;;;;;;;;5011878;28;20053;-78
2022/03/29 08:00:31;;;;;;;23.92;4.00;;;;;;;;;;5004618;28;20034;-78
2022/03/29 08:03:00;;;;;;;33.85;4.32;;;;;;;;;;5038931;28;20029;-79
2022/03/29 08:05:26;;;;;;;23.92;3.72;;;;;;;;;;5033837;28;20060;-79
2022/03/29 08:07:52;;;;;;;21.80;3.92;;;;;;;;;;5056236;28;20019;-76
2022/03/29 08:10:18;;;;;;;21.73;3.40;;;;;;;;;;5041467;28;20100;-78
2022/03/29 08:12:44;;;;;;;28.38;4.65;;;;;;;;;;5041828;28;20021;-77
2022/03/29 08:15:11;;;;;;;32.28;3.58;;;;;;;;;;5050136;28;20025;-80
2022/03/29 08:17:40;;;;;;;34.63;4.53;;;;;;;;;;5044318;28;20048;-78
2022/03/29 08:20:06;;;;;;;21.77;3.50;;;;;;;;;;5046962;28;20033;-78
2022/03/29 08:22:33;;;;;;;17.95;3.45;;;;;;;;;;5043492;28;20061;-78
2022/03/29 08:24:59;;;;;;;19.25;2.88;;;;;;;;;;5044505;28;20109;-77
2022/03/29 08:27:25;;;;;;;26.63;3.65;;;;;;;;;;5040809;28;20029;-77
2022/03/29 08:29:51;;;;;;;22.17;3.47;;;;;;;;;;5038892;28;20060;-80
2022/03/29 08:32:17;;;;;;;32.80;3.78;;;;;;;;;;5040015;28;20037;-78
2022/03/29 08:34:43;;;;;;;23.40;3.88;;;;;;;;;;5041833;28;20029;-75
2022/03/29 08:37:09;;;;;;;24.77;3.63;;;;;;;;;;5038931;28;20037;-77
2022/03/29 08:39:36;;;;;;;30.10;3.90;;;;;;;;;;5038713;28;20029;-78
2022/03/29 08:42:13;;;;;;;31.55;6.00;;;;;;;;;;5037834;28;20098;-78
2022/03/29 08:44:40;;;;;;;31.52;4.65;;;;;;;;;;5039666;28;20033;-78
2022/03/29 08:47:07;;;;;;;21.17;3.25;;;;;;;;;;5036246;28;20109;-76
2022/03/29 08:49:33;;;;;;;19.35;3.35;;;;;;;;;;5034500;28;20093;-75
2022/03/29 08:51:59;;;;;;;18.27;3.65;;;;;;;;;;5040030;28;20036;-79
2022/03/29 08:54:25;;;;;;;23.30;4.18;;;;;;;;;;5041180;28;20033;-77
2022/03/29 08:56:51;;;;;;;23.55;4.40;;;;;;;;;;5024735;28;20061;-77
2022/03/29 08:59:18;;;;;;;20.83;4.20;;;;;;;;;;5041596;28;20076;-77
2022/03/29 09:01:44;;;;;;;32.28;5.72;;;;;;;;;;5026325;28;20040;-75
2022/03/29 09:04:11;;;;;;;23.10;3.78;;;;;;;;;;5040793;28;20025;-76
2022/03/29 09:07:00;;;;;;;16.50;3.03;;;;;;;;;;5022723;28;20089;-77
2022/03/29 09:09:26;;;;;;;18.25;4.18;;;;;;;;;;5035058;28;20156;-76
2022/03/29 09:11:54;;;;;;;26.10;4.05;;;;;;;;;;5034743;28;20060;-77
2022/03/29 09:14:21;;;;;;;17.35;3.33;;;;;;;;;;5038307;28;20025;-77
2022/03/29 09:16:48;;;;;;;20.33;4.15;;;;;;;;;;5020888;28;20025;-77
2022/03/29 09:19:14;;;;;;;21.08;3.80;;;;;;;;;;5038534;28;20036;-77
2022/03/29 09:21:44;;;;;;;19.45;3.13;;;;;;;;;;5035768;28;20034;-77
2022/03/29 09:24:11;;;;;;;20.67;4.57;;;;;;;;;;5036890;28;20101;-77
2022/03/29 09:26:38;;;;;;;16.38;3.65;;;;;;;;;;5036756;28;20477;-76
2022/03/29 09:29:12;;;;;;;24.83;4.82;;;;;;;;;;5039008;28;20087;-77
2022/03/29 09:31:39;;;;;;;22.60;3.55;;;;;;;;;;5041417;28;20049;-77
2022/03/29 09:34:18;;;;;;;20.65;3.25;;;;;;;;;;5042871;28;20029;-77
2022/03/29 09:36:48;;;;;;;12.68;3.40;;;;;;;;;;5046794;28;20025;-76
2022/03/29 09:39:29;;;;;;;14.77;2.83;;;;;;;;;;5047314;28;20056;-77
2022/03/29 09:41:58;;;;;;;19.00;2.78;;;;;;;;;;5021212;28;20063;-78
2022/03/29 09:44:32;;;;;;;20.17;4.13;;;;;;;;;;5042490;28;20030;-76
2022/03/29 09:47:01;;;;;;;12.20;2.80;;;;;;;;;;5046469;28;20550;-78
2022/03/29 09:49:27;;;;;;;19.58;3.30;;;;;;;;;;5041567;28;20053;-77
2022/03/29 09:52:14;;;;;;;18.98;3.25;;;;;;;;;;5041833;28;20052;-78
2022/03/29 09:54:40;;;;;;;19.02;3.75;;;;;;;;;;5045362;28;20025;-79
2022/03/29 09:57:06;;;;;;;26.15;3.75;;;;;;;;;;5044692;28;20026;-78
2022/03/29 09:59:32;;;;;;;20.25;3.40;;;;;;;;;;5021781;28;20021;-78
2022/03/29 10:01:59;;;;;;;16.38;3.63;;;;;;;;;;5039058;28;20021;-79
2022/03/29 10:04:26;;;;;;;16.40;3.25;;;;;;;;;;5038345;28;20424;-78
2022/03/29 10:06:55;;;;;;;21.80;2.90;;;;;;;;;;5038854;28;20099;-80
2022/03/29 10:09:27;;;;;;;15.85;3.13;;;;;;;;;;5040741;28;20056;-76
2022/03/29 10:11:59;;;;;;;22.67;3.88;;;;;;;;;;5036445;28;20021;-80
2022/03/29 10:14:27;;;;;;;16.88;2.90;;;;;;;;;;5040667;28;20081;-81
2022/03/29 10:16:54;;;;;;;16.00;2.55;;;;;;;;;;5038914;28;20045;-78
2022/03/29 10:19:20;;;;;;;14.30;2.97;;;;;;;;;;5037075;28;20037;-78
2022/03/29 10:21:46;;;;;;;15.48;2.88;;;;;;;;;;5036749;28;20026;-80
2022/03/29 10:24:13;;;;;;;13.50;2.42;;;;;;;;;;5036955;28;20030;-79
2022/03/29 10:26:41;;;;;;;14.23;2.85;;;;;;;;;;5034516;28;20025;-78
2022/03/29 10:29:07;;;;;;;13.25;2.67;;;;;;;;;;5042333;28;20087;-78
2022/03/29 10:31:36;;;;;;;17.05;3.05;;;;;;;;;;5030130;28;20454;-78
2022/03/29 10:34:20;;;;;;;19.90;3.47;;;;;;;;;;5036478;28;20048;-79
2022/03/29 10:36:59;;;;;;;18.40;3.53;;;;;;;;;;5051680;28;20025;-77
2022/03/29 10:39:38;;;;;;;16.10;3.47;;;;;;;;;;5053428;28;20060;-78
2022/03/29 10:42:23;;;;;;;18.80;3.85;;;;;;;;;;5055692;28;20018;-76
2022/03/29 10:45:07;;;;;;;17.35;3.92;;;;;;;;;;5056903;28;20029;-79
2022/03/29 10:47:34;;;;;;;18.27;2.95;;;;;;;;;;5028719;28;20030;-77
2022/03/29 10:50:00;;;;;;;17.83;3.10;;;;;;;;;;5042008;28;20030;-77
2022/03/29 10:52:26;;;;;;;16.73;3.22;;;;;;;;;;5039547;28;20045;-80
2022/03/29 10:55:12;;;;;;;14.77;3.35;;;;;;;;;;5041657;28;20030;-78
2022/03/29 10:57:41;;;;;;;16.70;2.70;;;;;;;;;;5044596;28;20032;-77
2022/03/29 11:00:08;;;;;;;19.77;3.25;;;;;;;;;;5052384;28;20052;-77
2022/03/29 11:02:35;;;;;;;19.65;2.58;;;;;;;;;;5054056;28;20025;-78
2022/03/29 11:05:11;;;;;;;22.75;3.08;;;;;;;;;;5045678;28;20041;-78
2022/03/29 11:07:40;;;;;;;15.48;2.90;;;;;;;;;;5045409;28;20026;-78
2022/03/29 11:10:09;;;;;;;16.33;2.92;;;;;;;;;;5046099;28;20095;-78
2022/03/29 11:12:54;;;;;;;15.57;2.72;;;;;;;;;;5047424;28;20044;-78
2022/03/29 11:15:33;;;;;;;18.13;2.72;;;;;;;;;;5022491;28;20465;-76
2022/03/29 11:18:01;;;;;;;14.23;2.45;;;;;;;;;;5041791;28;20021;-77
2022/03/29 11:20:29;;;;;;;11.20;2.20;;;;;;;;;;5042372;28;20021;-79
2022/03/29 11:22:57;;;;;;;16.60;2.90;;;;;;;;;;5052420;28;20044;-77
2022/03/29 11:25:25;;;;;;;19.98;6.78;;;;;;;;;;5029733;28;20022;-77
2022/03/29 11:27:51;;;;;;;13.05;2.92;;;;;;;;;;5031176;28;20025;-77
2022/03/29 11:30:18;;;;;;;15.30;2.70;;;;;;;;;;5039462;28;20021;-79
2022/03/29 11:32:45;;;;;;;10.18;2.22;;;;;;;;;;5022471;28;20017;-77
2022/03/29 11:35:12;;;;;;;16.85;3.15;;;;;;;;;;5039470;28;20052;-76
2022/03/29 11:37:43;;;;;;;15.38;3.20;;;;;;;;;;5036248;28;20026;-77
2022/03/29 11:40:17;;;;;;;23.60;3.00;;;;;;;;;;5053310;28;20033;-77
2022/03/29 11:42:44;;;;;;;15.18;3.08;;;;;;;;;;5043103;28;20018;-78
2022/03/29 11:45:11;;;;;;;13.40;2.80;;;;;;;;;;5038493;28;20044;-77
2022/03/29 11:47:38;;;;;;;17.55;2.72;;;;;;;;;;5036973;28;20029;-76
2022/03/29 11:50:04;;;;;;;15.10;3.05;;;;;;;;;;5021099;28;20022;-77
2022/03/29 11:52:34;;;;;;;14.30;3.00;;;;;;;;;;5039094;28;20026;-77
2022/03/29 11:55:00;;;;;;;16.00;3.15;;;;;;;;;;5024455;28;20036;-77
2022/03/29 11:57:30;;;;;;;16.15;2.65;;;;;;;;;;5041611;28;20033;-79
2022/03/29 11:59:57;;;;;;;12.55;3.05;;;;;;;;;;5037653;28;20080;-78
2022/03/29 12:02:25;;;;;;;12.18;2.78;;;;;;;;;;5037809;28;20041;-76
2022/03/29 12:04:51;;;;;;;13.75;3.20;;;;;;;;;;5020907;28;20108;-78
2022/03/29 12:07:33;;;;;;;15.40;2.70;;;;;;;;;;5038785;28;20053;-78
2022/03/29 12:09:59;;;;;;;19.58;3.50;;;;;;;;;;5039100;28;20032;-78
2022/03/29 12:12:25;;;;;;;12.85;2.28;;;;;;;;;;5039198;28;20112;-78
2022/03/29 12:15:00;;;;;;;15.77;3.38;;;;;;;;;;5037968;28;20061;-77
2022/03/29 12:17:26;;;;;;;12.80;3.10;;;;;;;;;;5041198;28;20041;-77
2022/03/29 12:19:52;;;;;;;14.15;3.17;;;;;;;;;;5034733;28;20033;-74
2022/03/29 12:22:19;;;;;;;12.50;2.70;;;;;;;;;;5017411;28;20032;-76
2022/03/29 12:24:46;;;;;;;14.02;2.40;;;;;;;;;;5035075;28;20068;-77
2022/03/29 12:27:14;;;;;;;13.73;3.20;;;;;;;;;;5034930;28;20421;-78
2022/03/29 12:29:42;;;;;;;16.10;3.97;;;;;;;;;;5034747;28;20022;-78
2022/03/29 12:32:08;;;;;;;20.17;4.05;;;;;;;;;;5034954;28;20021;-76
2022/03/29 12:34:34;;;;;;;13.77;3.00;;;;;;;;;;5034440;28;20529;-77
2022/03/29 12:37:01;;;;;;;14.93;3.72;;;;;;;;;;5034591;28;20565;-77
2022/03/29 12:39:40;;;;;;;14.63;3.08;;;;;;;;;;5035813;28;20045;-77
2022/03/29 12:42:10;;;;;;;15.15;3.22;;;;;;;;;;5040019;28;20026;-77
2022/03/29 12:44:42;;;;;;;17.60;2.47;;;;;;;;;;5040562;28;20025;-75
2022/03/29 12:47:08;;;;;;;13.30;2.80;;;;;;;;;;5023994;28;20037;-77
2022/03/29 12:49:35;;;;;;;13.32;2.33;;;;;;;;;;5040964;28;20029;-75
2022/03/29 12:52:02;;;;;;;15.27;2.40;;;;;;;;;;5042589;28;20056;-74
2022/03/29 12:54:35;;;;;;;13.75;2.85;;;;;;;;;;5044206;28;20029;-75
2022/03/29 12:57:01;;;;;;;15.43;2.80;;;;;;;;;;5041096;28;20033;-76
2022/03/29 12:59:32;;;;;;;13.75;3.22;;;;;;;;;;5037702;28;20030;-77
2022/03/29 13:02:01;;;;;;;16.27;3.17;;;;;;;;;;5036636;28;20026;-77
2022/03/29 13:04:37;;;;;;;12.85;3.00;;;;;;;;;;5037397;28;20025;-76
2022/03/29 13:07:04;;;;;;;13.10;2.92;;;;;;;;;;5021218;28;20045;-74
2022/03/29 13:09:30;;;;;;;17.85;2.80;;;;;;;;;;5014780;28;20023;-76
2022/03/29 13:12:09;;;;;;;17.42;2.67;;;;;;;;;;4977436;28;20678;-76
2022/03/29 13:14:36;;;;;;;13.63;3.42;;;;;;;;;;4978898;28;20554;-74
2022/03/29 13:17:02;;;;;;;25.33;3.60;;;;;;;;;;5002306;28;20027;-78
2022/03/29 13:19:28;;;;;;;13.57;2.60;;;;;;;;;;4998937;28;20405;-77
2022/03/29 13:22:01;;;;;;;17.27;3.88;;;;;;;;;;4995832;28;20022;-76
2022/03/29 13:24:38;;;;;;;9.60;2.80;;;;;;;;;;4995883;28;20070;-75
2022/03/29 13:27:06;;;;;;;13.30;2.78;;;;;;;;;;4997896;28;20026;-74
2022/03/29 13:29:33;;;;;;;13.95;2.90;;;;;;;;;;4999541;28;20546;-75
2022/03/29 13:31:59;;;;;;;17.08;3.08;;;;;;;;;;4999625;28;20030;-76
2022/03/29 13:34:25;;;;;;;13.98;3.30;;;;;;;;;;4998362;28;20462;-75
2022/03/29 13:36:51;;;;;;;18.40;2.92;;;;;;;;;;5004514;28;20108;-77
2022/03/29 13:39:17;;;;;;;13.57;2.60;;;;;;;;;;5005587;28;20022;-76
2022/03/29 13:41:43;;;;;;;13.23;2.70;;;;;;;;;;5002867;28;20034;-76
2022/03/29 13:44:09;;;;;;;17.38;2.92;;;;;;;;;;5003535;28;20058;-76
2022/03/29 13:46:35;;;;;;;15.00;2.92;;;;;;;;;;5001854;28;20030;-78
2022/03/29 13:49:02;;;;;;;10.77;2.35;;;;;;;;;;5001060;28;20027;-77
2022/03/29 13:51:28;;;;;;;16.42;3.05;;;;;;;;;;5000236;28;20032;-76
2022/03/29 13:53:54;;;;;;;15.38;2.55;;;;;;;;;;5006349;28;20030;-78
2022/03/29 13:56:21;;;;;;;8.85;2.60;;;;;;;;;;5001454;28;20088;-79
2022/03/29 13:58:47;;;;;;;12.80;2.67;;;;;;;;;;5008726;28;20023;-78
2022/03/29 14:01:13;;;;;;;7.43;1.85;;;;;;;;;;4980361;28;20042;-77
2022/03/29 14:03:39;;;;;;;13.23;2.92;;;;;;;;;;4996800;28;20028;-77
2022/03/29 14:06:05;;;;;;;10.75;2.42;;;;;;;;;;4996066;28;20026;-78
2022/03/29 14:08:32;;;;;;;19.60;2.67;;;;;;;;;;4999268;28;20081;-76
2022/03/29 14:10:58;;;;;;;17.75;2.58;;;;;;;;;;5008489;28;20102;-76
2022/03/29 14:13:27;;;;;;;12.88;2.90;;;;;;;;;;5005772;28;20022;-77
2022/03/29 14:15:54;;;;;;;9.35;2.22;;;;;;;;;;5000541;28;20054;-76
2022/03/29 14:18:22;;;;;;;9.70;2.35;;;;;;;;;;4981811;28;20037;-77
2022/03/29 14:20:50;;;;;;;11.95;2.67;;;;;;;;;;4999010;28;20037;-78
2022/03/29 14:23:16;;;;;;;15.50;2.22;;;;;;;;;;5000837;28;20125;-75
2022/03/29 14:25:42;;;;;;;12.63;2.70;;;;;;;;;;4999422;28;20022;-77
2022/03/29 14:28:09;;;;;;;14.95;2.85;;;;;;;;;;4985125;28;20134;-78
2022/03/29 14:30:36;;;;;;;16.92;3.10;;;;;;;;;;5001625;28;20583;-76
2022/03/29 14:33:02;;;;;;;13.15;3.28;;;;;;;;;;4998089;28;20029;-76
2022/03/29 14:35:28;;;;;;;12.85;2.85;;;;;;;;;;4997564;28;20073;-76